Time;durP1;ratioP1;P1;durP2;ratioP2;P2;SDS_P1;SDS_P2;PMS_P1;PMS_P2;Temp;Humidity;BMP_temperature;BMP_pressure;BME280_temperature;BME280_humidity;BME280_pressure;Samples;Min_cycle;Max_cycle;Signal;HPM_P1;HPM_P2
2023/10/11 00:01:01;;;;;;;3.60;2.10;;;;;;;;;;6201925;28;20137;-80
2023/10/11 00:04:03;;;;;;;3.17;2.20;;;;;;;;;;5855317;28;10000338;-81
2023/10/11 00:07:04;;;;;;;2.33;1.90;;;;;;;;;;6216947;28;20036;-80
2023/10/11 00:10:10;;;;;;;2.37;1.87;;;;;;;;;;6172736;28;20022;-80
2023/10/11 00:13:11;;;;;;;3.40;2.13;;;;;;;;;;6195189;28;20466;-80
2023/10/11 00:16:13;;;;;;;4.15;1.88;;;;;;;;;;6207138;28;20026;-81
2023/10/11 00:19:15;;;;;;;4.32;2.08;;;;;;;;;;6177438;28;20030;-81
2023/10/11 00:22:16;;;;;;;4.00;2.03;;;;;;;;;;6156082;28;20427;-80
2023/10/11 00:25:23;;;;;;;2.15;1.73;;;;;;;;;;6154964;28;20031;-81
2023/10/11 00:28:24;;;;;;;4.88;2.35;;;;;;;;;;6152363;28;20042;-80
2023/10/11 00:31:24;;;;;;;3.67;1.95;;;;;;;;;;6167598;28;20114;-80
2023/10/11 00:34:24;;;;;;;4.43;1.70;;;;;;;;;;6170079;28;20035;-80
2023/10/11 00:37:25;;;;;;;4.37;2.00;;;;;;;;;;6160019;28;20034;-80
2023/10/11 00:40:27;;;;;;;3.40;1.80;;;;;;;;;;6166589;28;20369;-80
2023/10/11 00:43:34;;;;;;;3.58;2.33;;;;;;;;;;6147782;28;20126;-80
2023/10/11 00:46:56;;;;;;;2.50;1.92;;;;;;;;;;6219136;28;20486;-81
2023/10/11 00:49:58;;;;;;;3.75;1.80;;;;;;;;;;6168743;28;20034;-80
2023/10/11 00:53:00;;;;;;;;;;;;;;;;;;6150493;28;20689;-80
2023/10/11 00:56:02;;;;;;;5.57;1.60;;;;;;;;;;6170759;28;19956;-81
2023/10/11 00:59:08;;;;;;;2.65;1.63;;;;;;;;;;6269011;28;20070;-80
2023/10/11 01:02:08;;;;;;;2.42;1.98;;;;;;;;;;6244920;28;20030;-80
2023/10/11 01:05:08;;;;;;;2.73;1.80;;;;;;;;;;6163081;28;20088;-80
2023/10/11 01:08:10;;;;;;;2.30;1.70;;;;;;;;;;6173760;28;20027;-81
2023/10/11 01:11:12;;;;;;;4.07;1.92;;;;;;;;;;6167892;28;20470;-80
2023/10/11 01:14:12;;;;;;;3.20;1.88;;;;;;;;;;6152015;28;20491;-80
2023/10/11 01:17:12;;;;;;;3.63;1.90;;;;;;;;;;6159205;28;20031;-80
2023/10/11 01:20:17;;;;;;;2.27;1.77;;;;;;;;;;6165250;28;20087;-80
2023/10/11 01:23:17;;;;;;;5.22;1.77;;;;;;;;;;6162708;28;20106;-80
2023/10/11 01:26:19;;;;;;;1.87;1.53;;;;;;;;;;6138705;28;20114;-80
2023/10/11 01:29:19;;;;;;;2.17;1.60;;;;;;;;;;6138266;28;20020;-80
2023/10/11 01:32:19;;;;;;;2.17;1.80;;;;;;;;;;6127054;29;20047;-80
2023/10/11 01:35:20;;;;;;;2.50;1.63;;;;;;;;;;6142504;28;20030;-80
2023/10/11 01:38:20;;;;;;;3.30;1.75;;;;;;;;;;6138031;28;20037;-80
2023/10/11 01:41:22;;;;;;;2.13;1.57;;;;;;;;;;6138444;28;20107;-80
2023/10/11 01:44:22;;;;;;;3.42;1.83;;;;;;;;;;6134620;29;20492;-80
2023/10/11 01:47:22;;;;;;;2.20;1.73;;;;;;;;;;6127717;28;20111;-80
2023/10/11 01:50:24;;;;;;;3.47;1.47;;;;;;;;;;6125152;29;20030;-80
2023/10/11 01:53:24;;;;;;;2.55;1.65;;;;;;;;;;6128476;29;20039;-80
2023/10/11 01:56:27;;;;;;;2.58;1.70;;;;;;;;;;6149180;28;20085;-79
2023/10/11 01:59:28;;;;;;;2.70;1.67;;;;;;;;;;6149440;28;20152;-79
2023/10/11 02:02:28;;;;;;;3.30;1.73;;;;;;;;;;6159914;28;20388;-79
2023/10/11 02:05:31;;;;;;;2.20;1.50;;;;;;;;;;6144543;28;20038;-79
2023/10/11 02:08:36;;;;;;;3.60;1.55;;;;;;;;;;6128745;28;20427;-79
2023/10/11 02:11:41;;;;;;;2.78;1.73;;;;;;;;;;6130884;28;20031;-80
2023/10/11 02:14:41;;;;;;;2.33;1.52;;;;;;;;;;6136209;29;20039;-79
2023/10/11 02:17:47;;;;;;;2.20;1.50;;;;;;;;;;6132537;28;20483;-80
2023/10/11 02:20:47;;;;;;;3.60;1.73;;;;;;;;;;6139975;28;20053;-79
2023/10/11 02:23:47;;;;;;;3.63;1.67;;;;;;;;;;6178269;28;20027;-79
2023/10/11 02:26:50;;;;;;;3.40;1.50;;;;;;;;;;6191246;28;20057;-80
2023/10/11 02:29:50;;;;;;;2.45;1.42;;;;;;;;;;6174385;28;20179;-79
2023/10/11 02:32:52;;;;;;;2.23;1.50;;;;;;;;;;6188511;28;20050;-80
2023/10/11 02:35:56;;;;;;;2.03;1.52;;;;;;;;;;6259963;28;20038;-80
2023/10/11 02:38:57;;;;;;;2.28;1.60;;;;;;;;;;6196210;28;20519;-80
2023/10/11 02:41:58;;;;;;;3.10;1.77;;;;;;;;;;6177816;28;20030;-79
2023/10/11 02:45:05;;;;;;;2.45;1.55;;;;;;;;;;6192029;28;20030;-79
2023/10/11 02:48:10;;;;;;;1.83;1.42;;;;;;;;;;6174864;28;20050;-79
2023/10/11 02:51:15;;;;;;;3.45;1.80;;;;;;;;;;6171486;28;20225;-79
2023/10/11 02:54:15;;;;;;;2.40;1.70;;;;;;;;;;6171018;28;20372;-79
2023/10/11 02:57:18;;;;;;;2.83;1.77;;;;;;;;;;6175881;28;20031;-79
2023/10/11 03:00:21;;;;;;;3.42;1.75;;;;;;;;;;6171636;28;20026;-79
2023/10/11 03:03:22;;;;;;;2.97;2.00;;;;;;;;;;6187250;28;20031;-79
2023/10/11 03:06:22;;;;;;;3.83;1.60;;;;;;;;;;6173904;28;20042;-80
2023/10/11 03:09:27;;;;;;;3.27;1.47;;;;;;;;;;6169243;28;21328;-81
2023/10/11 03:12:38;;;;;;;1.75;1.55;;;;;;;;;;6176411;28;20037;-80
2023/10/11 03:15:38;;;;;;;3.60;1.60;;;;;;;;;;6168554;28;20026;-80
2023/10/11 03:18:39;;;;;;;2.40;1.80;;;;;;;;;;6171991;28;20113;-80
2023/10/11 03:21:40;;;;;;;3.97;1.60;;;;;;;;;;6168552;28;20388;-80
2023/10/11 03:24:40;;;;;;;2.93;1.33;;;;;;;;;;6173887;28;20035;-80
2023/10/11 03:27:49;;;;;;;5.00;1.80;;;;;;;;;;6173884;28;20023;-80
2023/10/11 03:30:50;;;;;;;3.17;1.67;;;;;;;;;;6174736;28;20023;-80
2023/10/11 03:33:51;;;;;;;2.10;1.50;;;;;;;;;;6168983;28;20037;-80
2023/10/11 03:36:51;;;;;;;2.83;1.63;;;;;;;;;;6165212;28;20452;-80
2023/10/11 03:39:56;;;;;;;4.05;1.50;;;;;;;;;;6173631;28;20026;-80
2023/10/11 03:43:03;;;;;;;2.15;1.45;;;;;;;;;;6160455;28;20078;-80
2023/10/11 03:46:04;;;;;;;2.20;1.55;;;;;;;;;;6164570;28;20081;-80
2023/10/11 03:52:22;;;;;;;2.28;1.38;;;;;;;;;;6172009;28;20038;-80
2023/10/11 03:55:22;;;;;;;3.47;1.63;;;;;;;;;;6170598;28;20612;-80
2023/10/11 04:01:36;;;;;;;2.40;1.48;;;;;;;;;;6168572;28;21978;-80
2023/10/11 04:04:40;;;;;;;1.70;1.30;;;;;;;;;;6170271;28;20034;-80
2023/10/11 04:07:40;;;;;;;2.75;1.25;;;;;;;;;;6168342;28;20503;-80
2023/10/11 04:10:46;;;;;;;3.43;1.53;;;;;;;;;;6173256;28;20039;-80
2023/10/11 04:13:46;;;;;;;2.38;1.30;;;;;;;;;;6173112;28;20076;-80
2023/10/11 04:16:47;;;;;;;2.40;1.27;;;;;;;;;;6178792;28;20018;-79
2023/10/11 04:19:51;;;;;;;2.33;1.50;;;;;;;;;;6181743;28;20039;-79
2023/10/11 04:23:09;;;;;;;2.38;1.40;;;;;;;;;;6177584;28;20051;-79
2023/10/11 04:29:44;;;;;;;1.70;1.45;;;;;;;;;;6188123;28;20093;-79
2023/10/11 04:32:47;;;;;;;3.28;1.48;;;;;;;;;;6172102;28;20030;-79
2023/10/11 04:35:57;;;;;;;2.28;1.77;;;;;;;;;;6170508;28;20083;-79
2023/10/11 04:39:14;;;;;;;2.87;1.60;;;;;;;;;;6171336;28;20084;-81
2023/10/11 04:42:14;;;;;;;3.03;2.00;;;;;;;;;;6179503;28;20022;-79
2023/10/11 04:45:22;;;;;;;2.30;1.83;;;;;;;;;;6165003;28;20087;-79
2023/10/11 04:48:33;;;;;;;3.42;1.77;;;;;;;;;;6176671;28;20457;-79
2023/10/11 04:51:39;;;;;;;2.03;1.33;;;;;;;;;;6158217;28;20061;-79
2023/10/11 04:54:53;;;;;;;1.92;1.65;;;;;;;;;;6176892;28;20034;-78
2023/10/11 04:58:07;;;;;;;2.88;1.80;;;;;;;;;;6176158;28;20106;-79
2023/10/11 05:01:08;;;;;;;2.55;1.40;;;;;;;;;;6173649;28;20113;-79
2023/10/11 05:04:13;;;;;;;2.33;1.67;;;;;;;;;;6173330;28;20411;-79
2023/10/11 05:07:14;;;;;;;2.00;1.42;;;;;;;;;;6172093;28;20073;-80
2023/10/11 05:10:32;;;;;;;;;;;;;;;;;;6174591;28;20117;-79
2023/10/11 05:13:36;;;;;;;1.92;1.20;;;;;;;;;;6170924;28;19922;-80
2023/10/11 05:16:38;;;;;;;1.75;1.20;;;;;;;;;;6177664;28;20120;-79
2023/10/11 05:19:38;;;;;;;2.28;1.50;;;;;;;;;;6171259;28;20038;-79
2023/10/11 05:25:45;;;;;;;1.87;1.47;;;;;;;;;;6173242;28;20031;-79
2023/10/11 05:28:58;;;;;;;2.63;1.70;;;;;;;;;;6171569;28;20030;-79
2023/10/11 05:32:20;;;;;;;2.22;1.58;;;;;;;;;;6189976;28;20025;-80
2023/10/11 05:51:43;;;;;;;1.52;1.42;;;;;;;;;;6174866;28;20039;-80
2023/10/11 05:54:45;;;;;;;3.28;1.50;;;;;;;;;;6170169;28;20104;-80
2023/10/11 05:57:45;;;;;;;1.80;1.27;;;;;;;;;;6171155;28;20029;-80
2023/10/11 06:00:49;;;;;;;3.40;1.30;;;;;;;;;;6175020;28;20022;-80
2023/10/11 06:03:51;;;;;;;3.55;1.70;;;;;;;;;;6172555;28;20023;-79
2023/10/11 06:06:57;;;;;;;;;;;;;;;;;;6175648;28;20026;-79
2023/10/11 06:10:06;;;;;;;1.55;1.13;;;;;;;;;;6170678;28;19955;-79
2023/10/11 06:13:07;;;;;;;2.20;1.20;;;;;;;;;;6174641;28;20034;-79
2023/10/11 06:16:07;;;;;;;2.88;1.55;;;;;;;;;;6183974;28;20034;-79
2023/10/11 06:19:16;;;;;;;1.38;1.08;;;;;;;;;;6194104;28;20078;-79
2023/10/11 06:22:17;;;;;;;1.75;1.23;;;;;;;;;;6173473;28;20448;-79
2023/10/11 06:25:30;;;;;;;1.90;1.30;;;;;;;;;;6174613;28;20034;-79
2023/10/11 06:28:33;;;;;;;1.52;1.20;;;;;;;;;;6171170;28;20018;-80
2023/10/11 06:31:34;;;;;;;1.80;1.35;;;;;;;;;;6175902;28;20058;-80
2023/10/11 06:34:34;;;;;;;2.85;1.65;;;;;;;;;;6171308;28;20039;-80
2023/10/11 06:37:37;;;;;;;2.30;1.23;;;;;;;;;;6166636;28;20117;-80
2023/10/11 06:40:47;;;;;;;1.92;1.38;;;;;;;;;;6170416;28;20475;-80
2023/10/11 06:43:47;;;;;;;3.17;1.58;;;;;;;;;;6174132;28;20050;-80
2023/10/11 06:46:50;;;;;;;1.88;1.40;;;;;;;;;;6182562;28;20479;-81
2023/10/11 06:49:54;;;;;;;3.53;1.33;;;;;;;;;;6166567;28;20034;-81
2023/10/11 06:52:54;;;;;;;2.42;1.63;;;;;;;;;;6171196;28;20060;-80
2023/10/11 06:55:58;;;;;;;2.53;1.53;;;;;;;;;;6187483;28;20026;-83
2023/10/11 06:59:00;;;;;;;2.45;1.67;;;;;;;;;;6167327;28;20079;-82
2023/10/11 07:02:00;;;;;;;;;;;;;;;;;;6178603;28;20030;-82
2023/10/11 07:05:05;;;;;;;2.10;1.10;;;;;;;;;;6173831;28;19925;-82
2023/10/11 07:08:05;;;;;;;2.63;1.63;;;;;;;;;;6180315;28;20105;-82
2023/10/11 07:11:17;;;;;;;4.37;1.60;;;;;;;;;;6172150;28;20035;-82
2023/10/11 07:14:18;;;;;;;1.98;1.60;;;;;;;;;;6179716;28;20498;-82
2023/10/11 07:17:21;;;;;;;4.38;1.70;;;;;;;;;;6160846;28;20029;-82
2023/10/11 07:27:12;;;;;;;4.15;1.73;;;;;;;;;;6183569;28;20195;-82
2023/10/11 07:30:19;;;;;;;2.33;1.65;;;;;;;;;;6159790;28;20033;-82
2023/10/11 07:33:20;;;;;;;1.85;1.40;;;;;;;;;;6162779;28;20026;-82
2023/10/11 07:36:22;;;;;;;2.53;1.77;;;;;;;;;;6158419;28;20026;-82
2023/10/11 07:39:25;;;;;;;2.65;1.58;;;;;;;;;;6157629;28;20049;-82
2023/10/11 07:42:28;;;;;;;2.67;1.63;;;;;;;;;;6177372;28;20483;-82
2023/10/11 07:45:28;;;;;;;2.40;1.80;;;;;;;;;;6165372;28;20126;-81
2023/10/11 07:48:32;;;;;;;4.53;2.07;;;;;;;;;;6183568;28;20026;-81
2023/10/11 07:51:39;;;;;;;3.70;2.05;;;;;;;;;;6175529;28;20026;-81
2023/10/11 07:54:39;;;;;;;3.45;1.85;;;;;;;;;;6170470;28;20428;-81
2023/10/11 07:57:44;;;;;;;3.07;1.77;;;;;;;;;;6173534;28;20027;-80
2023/10/11 08:00:45;;;;;;;4.30;2.10;;;;;;;;;;6169653;28;20023;-80
2023/10/11 08:03:45;;;;;;;3.87;2.57;;;;;;;;;;6182940;28;20035;-79
2023/10/11 08:06:45;;;;;;;5.03;2.70;;;;;;;;;;6181980;28;20021;-79
2023/10/11 08:09:45;;;;;;;5.13;2.77;;;;;;;;;;6189339;28;20105;-80
2023/10/11 08:12:45;;;;;;;5.67;3.03;;;;;;;;;;6190527;28;20026;-82
2023/10/11 08:15:46;;;;;;;3.80;3.10;;;;;;;;;;6174633;28;20022;-81
2023/10/11 08:18:48;;;;;;;5.07;3.10;;;;;;;;;;6170866;28;20033;-80
2023/10/11 08:21:55;;;;;;;5.85;2.97;;;;;;;;;;6169589;28;20133;-80
2023/10/11 08:24:59;;;;;;;4.75;2.88;;;;;;;;;;6175898;28;20039;-81
2023/10/11 08:28:12;;;;;;;3.97;3.10;;;;;;;;;;6171441;28;20470;-80
2023/10/11 08:31:12;;;;;;;4.65;2.80;;;;;;;;;;6169909;28;20066;-82
2023/10/11 08:34:14;;;;;;;6.10;2.70;;;;;;;;;;6144729;28;20368;-80
2023/10/11 08:37:14;;;;;;;3.90;2.85;;;;;;;;;;6151342;28;20057;-82
2023/10/11 08:40:23;;;;;;;2.77;2.30;;;;;;;;;;6136845;28;20031;-82
2023/10/11 08:43:24;;;;;;;6.13;2.55;;;;;;;;;;6156368;28;20029;-84
2023/10/11 08:46:28;;;;;;;2.63;2.42;;;;;;;;;;6150461;28;20036;-83
2023/10/11 08:49:28;;;;;;;2.95;2.15;;;;;;;;;;6156818;28;20459;-83
2023/10/11 08:52:28;;;;;;;3.70;2.30;;;;;;;;;;6154704;28;20034;-85
2023/10/11 08:55:29;;;;;;;2.80;2.30;;;;;;;;;;6153884;28;21241;-84
2023/10/11 08:58:29;;;;;;;3.42;2.10;;;;;;;;;;6156584;28;20083;-82
2023/10/11 09:01:29;;;;;;;5.33;2.23;;;;;;;;;;6137624;28;20041;-83
2023/10/11 09:04:29;;;;;;;4.50;2.57;;;;;;;;;;6156240;28;20035;-82
2023/10/11 09:07:29;;;;;;;;;;;;;;;;;;6139769;28;20140;-81
2023/10/11 09:10:32;;;;;;;4.35;2.17;;;;;;;;;;6153300;28;19913;-84
2023/10/11 09:13:36;;;;;;;3.60;2.65;;;;;;;;;;6157197;28;20027;-82
2023/10/11 09:16:37;;;;;;;4.05;2.55;;;;;;;;;;6152435;28;20121;-82
2023/10/11 09:19:49;;;;;;;3.08;2.50;;;;;;;;;;6157001;28;20377;-81
2023/10/11 09:22:52;;;;;;;6.28;2.67;;;;;;;;;;6154296;28;20058;-82
2023/10/11 09:25:59;;;;;;;3.97;2.45;;;;;;;;;;6137085;28;20475;-82
2023/10/11 09:29:02;;;;;;;2.42;2.20;;;;;;;;;;6163185;28;20022;-82
2023/10/11 09:32:05;;;;;;;3.15;2.08;;;;;;;;;;6160247;28;20393;-83
2023/10/11 09:35:23;;;;;;;2.88;2.15;;;;;;;;;;6160377;28;20794;-82
2023/10/11 09:38:24;;;;;;;3.60;2.20;;;;;;;;;;6156869;28;20038;-82
2023/10/11 09:41:25;;;;;;;2.88;2.03;;;;;;;;;;5814440;27;9999875;-83
2023/10/11 09:44:28;;;;;;;3.33;2.22;;;;;;;;;;6157274;28;20178;-83
2023/10/11 09:47:31;;;;;;;4.55;2.33;;;;;;;;;;6156819;28;20030;-83
2023/10/11 09:50:31;;;;;;;3.05;1.98;;;;;;;;;;5812995;28;9999914;-82
2023/10/11 09:53:31;;;;;;;;;;;;;;;;;;6144759;28;20045;-82
2023/10/11 09:56:36;;;;;;;2.45;1.65;;;;;;;;;;6156675;28;20477;-82
2023/10/11 09:59:59;;;;;;;3.47;1.70;;;;;;;;;;6159131;28;20350;-83
2023/10/11 10:02:59;;;;;;;2.25;1.65;;;;;;;;;;6159105;28;20186;-82
2023/10/11 10:06:18;;;;;;;1.88;1.58;;;;;;;;;;6161698;28;20122;-84
2023/10/11 10:12:22;;;;;;;1.65;1.38;;;;;;;;;;6157725;28;20038;-84
2023/10/11 10:15:23;;;;;;;2.17;1.52;;;;;;;;;;6159468;28;20081;-84
2023/10/11 10:18:25;;;;;;;2.42;1.70;;;;;;;;;;6160250;28;20030;-84
2023/10/11 10:21:25;;;;;;;2.40;1.70;;;;;;;;;;6159710;28;20066;-84
2023/10/11 10:24:28;;;;;;;;;;;;;;;;;;6156817;28;20022;-84
2023/10/11 10:27:33;;;;;;;1.40;1.13;;;;;;;;;;6158943;28;20374;-84
2023/10/11 10:30:54;;;;;;;3.92;1.70;;;;;;;;;;6160713;28;20407;-84
2023/10/11 10:34:04;;;;;;;2.08;1.48;;;;;;;;;;6141288;28;20595;-84
2023/10/11 10:37:06;;;;;;;1.83;1.63;;;;;;;;;;6155895;28;20290;-84
2023/10/11 10:40:24;;;;;;;3.17;1.80;;;;;;;;;;6160794;28;20399;-84
2023/10/11 10:43:27;;;;;;;2.58;1.52;;;;;;;;;;6160969;28;20057;-84
2023/10/11 10:46:27;;;;;;;5.20;1.30;;;;;;;;;;6141300;28;20029;-84
2023/10/11 10:49:29;;;;;;;;;;;;;;;;;;6159651;28;20026;-84
2023/10/11 10:52:30;;;;;;;3.40;1.40;;;;;;;;;;6142343;28;20444;-84
2023/10/11 10:55:36;;;;;;;1.90;1.45;;;;;;;;;;6157873;28;20038;-83
2023/10/11 10:58:36;;;;;;;3.90;1.70;;;;;;;;;;6159496;28;20042;-84
2023/10/11 11:01:37;;;;;;;;;;;;;;;;;;6144619;28;20034;-84
2023/10/11 11:04:37;;;;;;;1.75;1.40;;;;;;;;;;6169969;28;19934;-84
2023/10/11 11:07:37;;;;;;;;;;;;;;;;;;6161049;28;20116;-84
2023/10/11 11:10:39;;;;;;;2.25;1.63;;;;;;;;;;6159409;28;19925;-84
2023/10/11 11:13:51;;;;;;;2.15;1.75;;;;;;;;;;6137985;28;20026;-84
2023/10/11 11:16:55;;;;;;;2.97;1.83;;;;;;;;;;6163420;28;20022;-84
2023/10/11 11:23:23;;;;;;;2.17;1.55;;;;;;;;;;6157630;28;20173;-84
2023/10/11 11:26:30;;;;;;;4.63;2.17;;;;;;;;;;6159592;28;20030;-82
2023/10/11 11:29:31;;;;;;;3.33;1.92;;;;;;;;;;6159734;28;20026;-82
2023/10/11 11:32:36;;;;;;;3.72;2.13;;;;;;;;;;6160707;28;20034;-82
2023/10/11 11:35:44;;;;;;;4.15;1.92;;;;;;;;;;6157904;28;20088;-82
2023/10/11 11:38:47;;;;;;;3.08;1.83;;;;;;;;;;6155119;28;20547;-82
2023/10/11 11:41:48;;;;;;;1.80;1.67;;;;;;;;;;6158073;28;20035;-82
2023/10/11 11:44:49;;;;;;;2.45;1.52;;;;;;;;;;6156584;28;20081;-82
2023/10/11 11:47:58;;;;;;;2.72;1.98;;;;;;;;;;6156052;28;20030;-81
2023/10/11 11:50:58;;;;;;;2.88;1.85;;;;;;;;;;5810112;27;9999616;-82
2023/10/11 11:53:59;;;;;;;2.97;1.85;;;;;;;;;;6156083;28;20038;-82
2023/10/11 11:56:59;;;;;;;;;;;;;;;;;;6156297;28;20030;-82
2023/10/11 12:00:19;;;;;;;2.03;1.45;;;;;;;;;;6140407;28;20337;-82
2023/10/11 12:03:22;;;;;;;2.70;1.67;;;;;;;;;;6154444;28;20038;-82
2023/10/11 12:06:23;;;;;;;3.47;1.60;;;;;;;;;;6156782;28;20022;-83
2023/10/11 12:09:31;;;;;;;3.45;1.52;;;;;;;;;;6156968;28;20065;-82
2023/10/11 12:12:31;;;;;;;2.67;1.80;;;;;;;;;;6139850;28;20030;-83
2023/10/11 12:15:34;;;;;;;2.30;1.50;;;;;;;;;;6158311;28;20155;-83
2023/10/11 12:18:35;;;;;;;2.33;1.73;;;;;;;;;;6156842;28;20034;-82
2023/10/11 12:21:35;;;;;;;2.93;1.60;;;;;;;;;;6156703;28;20120;-83
2023/10/11 12:24:44;;;;;;;2.23;1.80;;;;;;;;;;6139032;28;20698;-83
2023/10/11 12:27:44;;;;;;;2.25;1.73;;;;;;;;;;6157832;28;20815;-83
2023/10/11 12:30:45;;;;;;;5.40;1.97;;;;;;;;;;6157041;28;20039;-82
2023/10/11 12:33:46;;;;;;;2.50;1.50;;;;;;;;;;6157549;28;20030;-83
2023/10/11 12:36:51;;;;;;;3.72;1.67;;;;;;;;;;6157915;28;20027;-84
2023/10/11 12:39:53;;;;;;;2.25;1.60;;;;;;;;;;6157415;28;20033;-85
2023/10/11 12:42:55;;;;;;;2.72;1.60;;;;;;;;;;6142781;28;20022;-85
2023/10/11 12:45:55;;;;;;;1.55;1.40;;;;;;;;;;6156193;28;20027;-85
2023/10/11 12:48:56;;;;;;;2.47;1.60;;;;;;;;;;6158331;28;20113;-85
2023/10/11 12:51:56;;;;;;;2.67;1.70;;;;;;;;;;6152861;28;20043;-85
2023/10/11 12:54:57;;;;;;;4.30;1.95;;;;;;;;;;6157518;28;20030;-86
2023/10/11 12:57:58;;;;;;;2.45;1.52;;;;;;;;;;6159776;28;20022;-85
2023/10/11 13:01:04;;;;;;;3.03;1.60;;;;;;;;;;6160878;28;20096;-85
2023/10/11 13:04:17;;;;;;;3.15;1.67;;;;;;;;;;6167303;28;20038;-85
2023/10/11 13:07:17;;;;;;;2.70;1.73;;;;;;;;;;6165977;28;20061;-85
2023/10/11 13:10:18;;;;;;;3.00;1.77;;;;;;;;;;6165547;28;20030;-85
2023/10/11 13:13:18;;;;;;;2.83;2.03;;;;;;;;;;6167337;28;20467;-85
2023/10/11 13:16:26;;;;;;;2.23;1.87;;;;;;;;;;6164866;28;20266;-85
2023/10/11 13:19:27;;;;;;;3.22;1.77;;;;;;;;;;6166055;28;20269;-85
2023/10/11 13:22:31;;;;;;;2.45;1.67;;;;;;;;;;6160933;28;20514;-85
2023/10/11 13:25:31;;;;;;;3.03;1.92;;;;;;;;;;6156788;28;20033;-85
2023/10/11 13:28:33;;;;;;;3.90;1.75;;;;;;;;;;6158525;28;20593;-84
2023/10/11 13:31:33;;;;;;;2.83;1.60;;;;;;;;;;6162138;28;20594;-85
2023/10/11 13:34:33;;;;;;;2.47;1.63;;;;;;;;;;6161440;28;20043;-85
2023/10/11 13:37:37;;;;;;;5.13;1.97;;;;;;;;;;6160256;28;20035;-85
2023/10/11 13:44:19;;;;;;;5.10;1.85;;;;;;;;;;6161354;28;20073;-82
2023/10/11 13:47:21;;;;;;;2.80;1.65;;;;;;;;;;6161099;28;20039;-83
2023/10/11 13:50:21;;;;;;;4.95;1.75;;;;;;;;;;6160750;28;20033;-83
2023/10/11 13:53:24;;;;;;;2.90;1.87;;;;;;;;;;6160438;28;20490;-83
2023/10/11 13:56:25;;;;;;;3.55;1.88;;;;;;;;;;6160354;28;20312;-83
2023/10/11 13:59:25;;;;;;;3.10;1.80;;;;;;;;;;6161360;28;20038;-82
2023/10/11 14:02:32;;;;;;;3.53;1.90;;;;;;;;;;6160370;28;20092;-84
2023/10/11 14:05:38;;;;;;;3.15;1.73;;;;;;;;;;6159179;28;20034;-84
2023/10/11 14:08:44;;;;;;;3.45;1.73;;;;;;;;;;6174339;28;20073;-82
2023/10/11 14:11:46;;;;;;;3.03;1.65;;;;;;;;;;6158563;28;20029;-82
2023/10/11 14:14:47;;;;;;;2.58;1.80;;;;;;;;;;6159330;28;20103;-83
2023/10/11 14:17:49;;;;;;;2.97;1.70;;;;;;;;;;6160682;28;20330;-84
2023/10/11 14:20:58;;;;;;;2.70;1.52;;;;;;;;;;6158424;28;20058;-84
2023/10/11 14:23:58;;;;;;;4.10;1.88;;;;;;;;;;6158744;28;20479;-83
2023/10/11 14:27:01;;;;;;;3.08;1.50;;;;;;;;;;6159170;28;20038;-83
2023/10/11 14:30:02;;;;;;;3.63;1.88;;;;;;;;;;6158705;28;23207;-84
2023/10/11 14:33:08;;;;;;;2.38;1.90;;;;;;;;;;6160301;28;20517;-84
2023/10/11 14:36:10;;;;;;;4.25;1.70;;;;;;;;;;6158880;28;20463;-82
2023/10/11 14:39:17;;;;;;;3.92;1.90;;;;;;;;;;6161071;28;20073;-83
2023/10/11 14:42:18;;;;;;;4.07;1.83;;;;;;;;;;6161012;28;20411;-83
2023/10/11 14:45:21;;;;;;;3.90;1.50;;;;;;;;;;6160374;28;20066;-83
2023/10/11 14:48:21;;;;;;;2.85;1.80;;;;;;;;;;6162051;28;20270;-83
2023/10/11 14:51:23;;;;;;;2.00;1.77;;;;;;;;;;6146254;28;20551;-85
2023/10/11 14:54:23;;;;;;;3.45;1.88;;;;;;;;;;6162829;28;20672;-85
2023/10/11 14:57:23;;;;;;;3.53;1.63;;;;;;;;;;6164109;28;20027;-85
2023/10/11 15:00:24;;;;;;;2.60;1.83;;;;;;;;;;6160262;28;20038;-86
2023/10/11 15:03:24;;;;;;;2.83;2.13;;;;;;;;;;6159604;28;20301;-85
2023/10/11 15:06:25;;;;;;;2.50;2.05;;;;;;;;;;6162273;28;20528;-85
2023/10/11 15:09:32;;;;;;;3.13;1.75;;;;;;;;;;6161748;28;20036;-84
2023/10/11 15:12:33;;;;;;;3.83;2.22;;;;;;;;;;6160798;28;20117;-85
2023/10/11 15:15:33;;;;;;;3.22;2.03;;;;;;;;;;6158630;28;20475;-85
2023/10/11 15:18:34;;;;;;;5.80;2.00;;;;;;;;;;6160472;28;20043;-85
2023/10/11 15:21:35;;;;;;;3.38;2.00;;;;;;;;;;6161959;28;20055;-85
2023/10/11 15:24:36;;;;;;;3.53;2.20;;;;;;;;;;6163669;28;20038;-85
2023/10/11 15:27:36;;;;;;;3.13;2.00;;;;;;;;;;6162071;28;20030;-85
2023/10/11 15:30:40;;;;;;;3.72;1.70;;;;;;;;;;6160413;28;20031;-85
2023/10/11 15:33:41;;;;;;;3.22;2.08;;;;;;;;;;6161222;28;20027;-85
2023/10/11 15:36:41;;;;;;;2.07;1.70;;;;;;;;;;6162190;28;20118;-86
2023/10/11 15:39:41;;;;;;;3.43;1.80;;;;;;;;;;6140196;28;20031;-85
2023/10/11 15:42:41;;;;;;;4.13;2.10;;;;;;;;;;6161875;28;20038;-86
2023/10/11 15:45:48;;;;;;;2.45;2.10;;;;;;;;;;6155542;28;20109;-85
2023/10/11 15:48:49;;;;;;;5.28;1.90;;;;;;;;;;6160146;28;20486;-85
2023/10/11 15:51:50;;;;;;;2.00;1.80;;;;;;;;;;6158811;28;20082;-85
2023/10/11 15:54:51;;;;;;;3.63;2.10;;;;;;;;;;6160355;28;20550;-85
2023/10/11 15:57:55;;;;;;;3.47;2.17;;;;;;;;;;6154884;28;20026;-85
2023/10/11 16:00:55;;;;;;;3.88;2.30;;;;;;;;;;6143885;28;20080;-86
2023/10/11 16:03:55;;;;;;;4.28;2.63;;;;;;;;;;6154930;28;20113;-83
2023/10/11 16:06:56;;;;;;;4.30;2.83;;;;;;;;;;6157053;28;20030;-82
2023/10/11 16:09:56;;;;;;;5.57;3.10;;;;;;;;;;6159630;28;20502;-82
2023/10/11 16:12:56;;;;;;;3.28;2.33;;;;;;;;;;6154919;28;20282;-83
2023/10/11 16:16:04;;;;;;;6.13;2.50;;;;;;;;;;6178225;28;20102;-82
2023/10/11 16:19:05;;;;;;;3.70;2.35;;;;;;;;;;6199458;28;20284;-82
2023/10/11 16:22:08;;;;;;;4.32;2.17;;;;;;;;;;6168387;28;20055;-82
2023/10/11 16:25:09;;;;;;;3.85;2.13;;;;;;;;;;6147377;29;20395;-82
2023/10/11 16:28:09;;;;;;;2.72;2.00;;;;;;;;;;6147486;29;20042;-83
2023/10/11 16:31:12;;;;;;;2.93;2.00;;;;;;;;;;6133736;28;20054;-80
2023/10/11 16:34:13;;;;;;;2.10;1.80;;;;;;;;;;6125814;29;20767;-81
2023/10/11 16:37:13;;;;;;;2.33;1.75;;;;;;;;;;6139916;28;20031;-81
2023/10/11 16:40:15;;;;;;;4.33;2.47;;;;;;;;;;6141105;28;20477;-81
2023/10/11 16:43:15;;;;;;;3.95;2.17;;;;;;;;;;6147883;28;20047;-81
2023/10/11 16:46:20;;;;;;;2.53;1.92;;;;;;;;;;6142992;28;20065;-82
2023/10/11 16:49:20;;;;;;;4.25;2.40;;;;;;;;;;6136846;29;20019;-81
2023/10/11 16:52:20;;;;;;;2.77;2.13;;;;;;;;;;6133574;28;20099;-82
2023/10/11 16:55:21;;;;;;;2.77;2.13;;;;;;;;;;6133602;29;20278;-81
2023/10/11 16:58:22;;;;;;;2.13;1.80;;;;;;;;;;6136662;29;20267;-81
2023/10/11 17:01:22;;;;;;;4.82;2.13;;;;;;;;;;6135444;28;20051;-82
2023/10/11 17:04:24;;;;;;;2.20;1.90;;;;;;;;;;6135395;29;20395;-82
2023/10/11 17:07:25;;;;;;;3.33;2.05;;;;;;;;;;6136126;28;20034;-82
2023/10/11 17:10:26;;;;;;;2.55;2.08;;;;;;;;;;6132278;28;20036;-82
2023/10/11 17:13:27;;;;;;;4.63;2.50;;;;;;;;;;6149897;28;20027;-82
2023/10/11 17:16:27;;;;;;;4.53;2.47;;;;;;;;;;6136641;29;20053;-81
2023/10/11 17:19:29;;;;;;;3.13;2.40;;;;;;;;;;6135514;29;20358;-82
2023/10/11 17:22:32;;;;;;;5.10;2.70;;;;;;;;;;6170437;28;20306;-83
2023/10/11 17:25:33;;;;;;;5.35;2.35;;;;;;;;;;6187851;28;20037;-82
2023/10/11 17:28:37;;;;;;;3.45;2.20;;;;;;;;;;6201604;28;20031;-82
2023/10/11 17:31:37;;;;;;;4.25;2.17;;;;;;;;;;6215034;28;20026;-82
2023/10/11 17:34:37;;;;;;;2.55;1.92;;;;;;;;;;6201247;28;20028;-81
2023/10/11 17:37:38;;;;;;;3.70;2.10;;;;;;;;;;6181270;28;20088;-81
2023/10/11 17:40:38;;;;;;;3.08;1.95;;;;;;;;;;6193139;28;20097;-82
2023/10/11 17:43:38;;;;;;;4.10;2.67;;;;;;;;;;6210458;28;20035;-83
2023/10/11 17:46:38;;;;;;;;;;;;;;;;;;6183906;28;20343;-82
2023/10/11 17:49:39;;;;;;;3.00;1.80;;;;;;;;;;6173088;28;19910;-81
2023/10/11 17:52:39;;;;;;;;;;;;;;;;;;6177875;28;20029;-82
2023/10/11 17:55:39;;;;;;;2.80;1.75;;;;;;;;;;6176490;28;19910;-82
2023/10/11 17:58:39;;;;;;;;;;;;;;;;;;6184345;28;20387;-82
2023/10/11 18:01:41;;;;;;;2.75;1.70;;;;;;;;;;6181537;28;20008;-82
2023/10/11 18:04:43;;;;;;;4.13;2.30;;;;;;;;;;6175575;28;20034;-81
2023/10/11 18:07:47;;;;;;;5.38;2.85;;;;;;;;;;6162903;28;20035;-82
2023/10/11 18:10:48;;;;;;;2.85;2.45;;;;;;;;;;6176652;28;20031;-81
2023/10/11 18:13:48;;;;;;;;;;;;;;;;;;6180158;28;20659;-82
2023/10/11 18:16:48;;;;;;;3.45;1.77;;;;;;;;;;6163535;28;19929;-82
2023/10/11 18:19:53;;;;;;;;;;;;;;;;;;6179476;28;20022;-82
2023/10/11 18:22:53;;;;;;;4.28;1.98;;;;;;;;;;6176268;28;19951;-82
2023/10/11 18:25:54;;;;;;;;;;;;;;;;;;6174726;28;20022;-81
2023/10/11 18:28:59;;;;;;;3.17;2.03;;;;;;;;;;6180259;28;20310;-81
2023/10/11 18:31:59;;;;;;;4.20;2.10;;;;;;;;;;6168715;28;20018;-81
2023/10/11 18:34:59;;;;;;;;;;;;;;;;;;6180021;28;20035;-81
2023/10/11 18:38:00;;;;;;;3.47;1.98;;;;;;;;;;6175836;28;19910;-82
2023/10/11 18:41:00;;;;;;;;;;;;;;;;;;6162084;28;20054;-81
2023/10/11 18:44:00;;;;;;;2.47;1.57;;;;;;;;;;6178473;28;19944;-81
2023/10/11 18:47:00;;;;;;;;;;;;;;;;;;6177826;28;20030;-81
2023/10/11 18:50:01;;;;;;;2.35;1.80;;;;;;;;;;6180165;28;20005;-81
2023/10/11 18:53:01;;;;;;;2.93;1.80;;;;;;;;;;5830795;27;10000066;-82
2023/10/11 18:56:01;;;;;;;;;;;;;;;;;;6172119;28;20048;-82
2023/10/11 18:59:02;;;;;;;2.20;1.50;;;;;;;;;;6171916;28;20378;-81
2023/10/11 19:02:02;;;;;;;;;;;;;;;;;;6179320;28;20034;-82
2023/10/11 19:05:05;;;;;;;2.53;1.60;;;;;;;;;;6173684;28;20000;-81
2023/10/11 19:08:05;;;;;;;3.33;2.17;;;;;;;;;;6173614;28;20137;-81